Time;durP1;ratioP1;P1;durP2;ratioP2;P2;SDS_P1;SDS_P2;PMS_P1;PMS_P2;Temp;Humidity;BMP_temperature;BMP_pressure;BME280_temperature;BME280_humidity;BME280_pressure;Samples;Min_cycle;Max_cycle;Signal;HPM_P1;HPM_P2
2024/01/15 00:01:44;;;;;;;7.77;2.10;;;0.60;99.90;;;;;;4919304;29;20127;-91
2024/01/15 00:04:13;;;;;;;8.50;1.60;;;0.70;99.90;;;;;;4919217;29;20134;-91
2024/01/15 00:06:47;;;;;;;9.17;2.40;;;1.00;99.90;;;;;;4919353;29;20129;-91
2024/01/15 00:09:22;;;;;;;21.93;6.47;;;0.60;99.90;;;;;;4919198;29;20044;-90
2024/01/15 00:12:00;;;;;;;14.13;3.27;;;0.80;99.90;;;;;;4919679;29;20403;-90
2024/01/15 00:14:34;;;;;;;19.37;5.63;;;3.20;99.90;;;;;;4920694;29;20506;-91
2024/01/15 00:17:09;;;;;;;16.27;4.83;;;0.40;99.90;;;;;;4925457;29;20043;-90
2024/01/15 00:19:41;;;;;;;21.43;7.17;;;1.90;99.90;;;;;;4919613;29;20134;-90
2024/01/15 00:22:09;;;;;;;14.13;3.27;;;1.30;99.90;;;;;;4919054;29;20050;-90
2024/01/15 00:24:34;;;;;;;19.37;7.20;;;2.00;99.90;;;;;;4919741;29;20055;-91
2024/01/15 00:27:15;;;;;;;19.73;7.03;;;1.70;99.90;;;;;;4918730;29;20488;-91
2024/01/15 00:29:56;;;;;;;8.97;2.67;;;1.30;99.90;;;;;;4919624;29;20083;-91
2024/01/15 00:32:34;;;;;;;13.00;2.03;;;1.80;99.90;;;;;;4919825;29;20136;-91
2024/01/15 00:35:24;;;;;;;20.00;5.70;;;1.30;99.90;;;;;;4918261;29;20055;-91
2024/01/15 00:38:02;;;;;;;11.40;2.10;;;2.70;99.90;;;;;;4919012;29;20079;-91
2024/01/15 00:40:42;;;;;;;11.47;2.87;;;0.90;99.90;;;;;;4919198;29;20078;-91
2024/01/15 00:43:18;;;;;;;22.77;8.40;;;0.50;99.90;;;;;;4919466;29;20110;-91
2024/01/15 00:45:45;;;;;;;19.80;7.43;;;1.40;99.90;;;;;;4919066;29;20056;-91
2024/01/15 00:48:16;;;;;;;19.77;6.43;;;2.30;99.90;;;;;;4918216;29;20051;-91
2024/01/15 00:50:47;;;;;;;14.23;4.00;;;1.30;99.90;;;;;;4919261;29;20047;-91
2024/01/15 00:53:28;;;;;;;15.53;3.60;;;1.30;99.90;;;;;;4921956;29;20051;-91
2024/01/15 00:56:06;;;;;;;11.23;2.37;;;2.80;99.90;;;;;;4922463;29;20051;-91
2024/01/15 00:58:34;;;;;;;12.93;1.87;;;0.80;99.90;;;;;;4919235;29;20039;-91
2024/01/15 01:01:06;;;;;;;28.47;11.17;;;0.80;99.90;;;;;;4934749;29;20059;-90
2024/01/15 01:03:41;;;;;;;9.73;2.13;;;1.20;99.90;;;;;;4918175;29;20055;-91
2024/01/15 01:06:12;;;;;;;15.80;5.47;;;1.80;99.90;;;;;;4918503;29;20055;-90
2024/01/15 01:08:52;;;;;;;15.80;6.70;;;1.10;99.90;;;;;;4918887;29;20043;-91
2024/01/15 01:11:31;;;;;;;25.17;8.57;;;3.30;99.90;;;;;;4919169;29;20043;-91
2024/01/15 01:13:57;;;;;;;32.07;12.27;;;0.20;99.90;;;;;;4918955;29;20078;-91
2024/01/15 01:16:38;;;;;;;6.90;1.83;;;0.80;99.90;;;;;;4932284;29;20060;-90
2024/01/15 01:19:38;;;;;;;15.73;3.80;;;1.20;99.90;;;;;;4918758;29;20048;-91
2024/01/15 01:22:16;;;;;;;16.87;5.57;;;1.20;99.90;;;;;;4918908;29;20047;-92
2024/01/15 01:24:51;;;;;;;8.00;2.13;;;2.20;99.90;;;;;;4918682;29;20111;-91
2024/01/15 01:27:26;;;;;;;13.60;2.40;;;2.00;99.90;;;;;;4921407;29;20047;-91
2024/01/15 01:29:55;;;;;;;9.80;2.80;;;2.20;99.90;;;;;;4925921;29;20044;-92
2024/01/15 01:32:33;;;;;;;16.30;2.93;;;1.50;99.90;;;;;;4918826;29;20090;-91
2024/01/15 01:34:59;;;;;;;11.37;2.23;;;0.90;99.90;;;;;;4934120;29;20059;-90
2024/01/15 01:37:24;;;;;;;7.70;2.00;;;1.10;99.90;;;;;;4918507;29;20048;-91
2024/01/15 01:40:09;;;;;;;6.70;1.53;;;2.80;99.90;;;;;;4919090;29;20099;-92
2024/01/15 01:43:19;;;;;;;9.90;1.83;;;1.20;99.90;;;;;;4919291;29;20496;-91
2024/01/15 01:46:01;;;;;;;5.67;1.50;;;1.00;99.90;;;;;;4861176;29;20060;-92
2024/01/15 01:48:40;;;;;;;6.87;1.50;;;2.40;99.90;;;;;;4861893;29;20068;-91
2024/01/15 01:51:07;;;;;;;12.17;1.67;;;2.10;99.90;;;;;;4861949;29;20057;-91
2024/01/15 01:53:41;;;;;;;9.37;1.83;;;0.50;99.90;;;;;;4861620;29;20147;-92
2024/01/15 01:56:07;;;;;;;10.27;1.77;;;1.20;99.90;;;;;;4849629;29;20614;-93
2024/01/15 01:58:33;;;;;;;6.30;1.50;;;0.80;99.90;;;;;;4865624;29;20141;-93
2024/01/15 02:01:18;;;;;;;7.40;1.60;;;0.90;99.90;;;;;;4846221;29;20063;-91
2024/01/15 02:03:49;;;;;;;9.33;1.53;;;0.50;99.90;;;;;;4909973;29;20382;-92
2024/01/15 02:06:21;;;;;;;7.60;1.63;;;0.70;99.90;;;;;;4902788;29;20044;-93
2024/01/15 02:08:47;;;;;;;9.67;1.77;;;1.10;99.90;;;;;;4885906;23;20056;-92
2024/01/15 02:11:12;;;;;;;4.63;1.17;;;0.80;99.90;;;;;;4884252;29;20075;-92
2024/01/15 02:13:39;;;;;;;10.93;1.77;;;0.90;99.90;;;;;;4884469;29;20058;-92
2024/01/15 02:16:05;;;;;;;5.93;1.43;;;0.80;99.90;;;;;;4884259;29;20055;-91
2024/01/15 02:18:43;;;;;;;3.10;1.10;;;0.80;99.90;;;;;;4884416;29;20048;-93
2024/01/15 02:21:10;;;;;;;5.63;1.23;;;0.80;99.90;;;;;;4884023;29;20049;-91
2024/01/15 02:23:36;;;;;;;9.20;1.30;;;0.70;99.90;;;;;;4884087;29;20069;-91
2024/01/15 02:26:05;;;;;;;5.97;1.17;;;0.70;99.90;;;;;;4883759;29;20048;-91
2024/01/15 02:28:32;;;;;;;6.10;1.03;;;0.70;99.90;;;;;;4883980;29;20058;-91
2024/01/15 02:30:58;;;;;;;5.93;1.00;;;0.80;99.90;;;;;;4883759;29;20442;-90
2024/01/15 02:33:23;;;;;;;5.07;1.13;;;0.70;99.90;;;;;;4883035;29;20046;-92
2024/01/15 02:35:52;;;;;;;4.97;1.60;;;0.70;99.90;;;;;;4883836;29;20044;-90
2024/01/15 02:38:17;;;;;;;7.57;1.33;;;0.60;99.90;;;;;;4883687;29;20103;-90
2024/01/15 02:40:47;;;;;;;8.20;1.30;;;0.60;99.90;;;;;;4883584;29;20041;-90
2024/01/15 02:43:13;;;;;;;7.67;1.30;;;0.70;99.90;;;;;;4883078;29;20413;-90
2024/01/15 02:45:39;;;;;;;5.90;1.60;;;0.50;99.90;;;;;;4883230;29;20173;-91
2024/01/15 02:48:05;;;;;;;6.30;2.03;;;1.20;99.90;;;;;;4882517;29;20142;-90
2024/01/15 02:50:34;;;;;;;4.50;1.37;;;0.70;99.90;;;;;;4883639;29;20052;-91
2024/01/15 02:53:09;;;;;;;2.70;1.47;;;1.10;99.90;;;;;;4883510;29;20048;-91
2024/01/15 02:55:43;;;;;;;6.87;1.60;;;2.20;99.90;;;;;;4883217;29;20045;-91
2024/01/15 02:58:24;;;;;;;4.70;1.23;;;0.40;99.90;;;;;;4883558;29;20052;-92
2024/01/15 03:00:53;;;;;;;7.53;1.40;;;0.50;99.90;;;;;;4883071;29;20537;-90
2024/01/15 03:03:25;;;;;;;7.70;1.67;;;0.60;99.90;;;;;;4883070;29;20137;-90
2024/01/15 03:05:57;;;;;;;9.03;1.73;;;2.00;99.90;;;;;;4882732;29;20047;-90
2024/01/15 03:09:13;;;;;;;7.57;1.30;;;0.80;99.90;;;;;;4884002;29;20579;-91
2024/01/15 03:12:30;;;;;;;7.10;1.17;;;1.30;99.90;;;;;;4864929;29;20140;-90
2024/01/15 03:14:58;;;;;;;6.33;1.33;;;1.20;99.90;;;;;;4864032;29;20109;-90
2024/01/15 03:17:35;;;;;;;4.13;1.03;;;2.70;99.90;;;;;;4863739;29;20434;-90
2024/01/15 03:20:13;;;;;;;7.27;1.43;;;0.70;99.90;;;;;;4863953;29;20059;-91
2024/01/15 03:22:54;;;;;;;9.80;1.70;;;0.90;99.90;;;;;;4863649;29;20572;-89
2024/01/15 03:25:28;;;;;;;4.93;1.00;;;1.80;99.90;;;;;;4864258;29;20053;-90
2024/01/15 03:28:12;;;;;;;8.17;1.40;;;1.60;99.90;;;;;;4863586;29;20139;-90
2024/01/15 03:30:49;;;;;;;3.85;0.90;;;1.00;99.90;;;;;;4863877;29;20140;-91
2024/01/15 03:33:26;;;;;;;3.13;0.93;;;2.70;99.90;;;;;;4863844;29;20045;-90
2024/01/15 03:36:02;;;;;;;3.67;1.10;;;2.20;99.90;;;;;;4870582;29;20076;-91
2024/01/15 03:38:40;;;;;;;7.57;1.17;;;2.10;99.90;;;;;;4865734;29;20097;-89
2024/01/15 03:41:18;;;;;;;6.40;1.27;;;1.70;99.90;;;;;;4864444;29;20041;-90
2024/01/15 03:43:46;;;;;;;5.63;1.10;;;0.70;99.90;;;;;;4868987;29;20514;-91
2024/01/15 03:46:24;;;;;;;5.87;1.13;;;0.70;99.90;;;;;;4864572;29;20056;-91
2024/01/15 03:48:58;;;;;;;8.03;1.30;;;1.10;99.90;;;;;;4864405;29;20088;-91
2024/01/15 03:51:25;;;;;;;18.97;1.57;;;2.60;99.90;;;;;;4863890;29;20140;-91
2024/01/15 03:53:57;;;;;;;6.63;1.40;;;0.60;99.90;;;;;;4864726;29;20045;-91
2024/01/15 03:56:37;;;;;;;8.33;1.90;;;3.40;99.90;;;;;;4864298;29;20489;-90
2024/01/15 03:59:12;;;;;;;9.13;1.67;;;0.20;99.90;;;;;;4863968;29;20117;-91
2024/01/15 04:01:56;;;;;;;7.47;1.40;;;0.70;99.90;;;;;;4865065;29;20406;-90
2024/01/15 04:04:33;;;;;;;8.93;1.85;;;1.10;99.90;;;;;;4864967;29;20041;-90
2024/01/15 04:07:09;;;;;;;6.60;1.30;;;2.20;99.90;;;;;;4864278;29;20045;-90
2024/01/15 04:09:38;;;;;;;7.23;1.50;;;4.00;99.90;;;;;;4871846;29;20135;-91
2024/01/15 04:13:10;;;;;;;7.90;1.50;;;1.10;99.90;;;;;;4881978;29;20049;-90
2024/01/15 04:19:22;;;;;;;5.83;1.33;;;1.70;99.90;;;;;;4938261;29;20051;-89
2024/01/15 04:21:53;;;;;;;7.57;1.47;;;1.40;99.90;;;;;;4938443;29;20095;-89
2024/01/15 04:24:19;;;;;;;7.87;1.60;;;1.40;99.90;;;;;;4930865;23;20517;-91
2024/01/15 04:26:45;;;;;;;4.90;1.37;;;1.90;99.90;;;;;;4900105;29;20079;-91
2024/01/15 04:29:11;;;;;;;8.77;1.63;;;1.10;99.90;;;;;;4900050;29;20059;-91
2024/01/15 04:31:37;;;;;;;7.60;1.50;;;1.10;99.90;;;;;;4900325;29;20386;-91
2024/01/15 04:34:08;;;;;;;7.27;1.33;;;1.10;99.90;;;;;;4900234;29;20437;-91
2024/01/15 04:36:40;;;;;;;7.77;1.43;;;2.10;99.90;;;;;;4900021;29;20135;-91
2024/01/15 04:39:06;;;;;;;9.50;1.60;;;0.80;99.90;;;;;;4900152;29;20051;-91
2024/01/15 04:41:31;;;;;;;6.53;1.23;;;0.80;99.90;;;;;;4899295;29;20441;-90
2024/01/15 04:43:57;;;;;;;6.13;1.90;;;1.10;99.90;;;;;;4899773;29;20044;-91
2024/01/15 04:46:22;;;;;;;6.40;1.43;;;1.10;99.90;;;;;;4900010;29;20551;-91
2024/01/15 04:48:48;;;;;;;6.83;1.67;;;1.10;99.90;;;;;;4899324;29;20072;-91
2024/01/15 04:51:13;;;;;;;7.17;1.50;;;1.10;99.90;;;;;;4899850;29;20040;-91
2024/01/15 04:53:39;;;;;;;9.57;2.17;;;1.10;99.90;;;;;;4900187;29;20048;-92
2024/01/15 04:56:05;;;;;;;6.73;1.80;;;1.10;99.90;;;;;;4899180;29;20112;-91
2024/01/15 04:58:30;;;;;;;6.07;1.37;;;1.10;99.90;;;;;;4900585;29;20052;-91
2024/01/15 05:00:56;;;;;;;8.30;1.53;;;1.10;99.90;;;;;;4899258;29;20594;-91
2024/01/15 05:03:22;;;;;;;11.80;1.87;;;1.20;99.90;;;;;;4899882;29;20126;-91
2024/01/15 05:05:47;;;;;;;6.13;1.40;;;1.10;99.90;;;;;;4899825;29;20048;-91
2024/01/15 05:08:13;;;;;;;12.00;2.10;;;1.10;99.90;;;;;;4899162;29;20508;-91
2024/01/15 05:10:38;;;;;;;7.30;1.80;;;1.10;99.90;;;;;;4899914;29;20175;-91
2024/01/15 05:13:04;;;;;;;12.10;2.00;;;1.00;99.90;;;;;;4900027;29;20048;-91
2024/01/15 05:15:30;;;;;;;9.97;1.60;;;1.00;99.90;;;;;;4899197;29;20067;-92
2024/01/15 05:17:55;;;;;;;13.37;2.07;;;1.10;99.90;;;;;;4901190;29;20044;-91
2024/01/15 05:20:21;;;;;;;14.50;2.07;;;1.10;99.90;;;;;;4904600;29;20108;-91
2024/01/15 05:22:47;;;;;;;8.30;1.40;;;1.10;99.90;;;;;;4904875;29;20064;-92
2024/01/15 05:25:13;;;;;;;8.07;2.17;;;1.10;99.90;;;;;;4900206;29;20048;-91
2024/01/15 05:27:38;;;;;;;9.60;1.53;;;1.00;99.90;;;;;;4899786;29;20412;-92
2024/01/15 05:30:04;;;;;;;8.23;1.73;;;1.00;99.90;;;;;;4898858;29;20393;-92
2024/01/15 05:32:30;;;;;;;4.53;1.20;;;0.90;99.90;;;;;;4900066;29;20048;-92
2024/01/15 05:34:55;;;;;;;12.20;2.47;;;0.90;99.90;;;;;;4897286;29;20052;-91
2024/01/15 05:37:21;;;;;;;5.47;1.17;;;0.90;99.90;;;;;;4902242;29;20048;-91
2024/01/15 05:39:47;;;;;;;7.03;1.60;;;0.80;99.90;;;;;;4903604;29;20048;-90
2024/01/15 05:42:12;;;;;;;8.03;1.87;;;0.80;99.90;;;;;;4902880;29;20489;-92
2024/01/15 05:44:38;;;;;;;8.93;1.43;;;0.90;99.90;;;;;;4902795;29;20075;-90
2024/01/15 05:47:13;;;;;;;7.87;2.20;;;0.90;99.90;;;;;;4902509;29;20400;-91
2024/01/15 05:49:54;;;;;;;7.27;1.50;;;0.80;99.90;;;;;;4903013;29;20500;-91
2024/01/15 05:52:39;;;;;;;7.80;1.90;;;0.80;99.90;;;;;;4902689;29;20044;-91
2024/01/15 05:55:20;;;;;;;7.77;1.97;;;-0.40;99.90;;;;;;4909024;29;20143;-91
2024/01/15 05:58:06;;;;;;;7.37;1.60;;;1.00;99.90;;;;;;4902953;29;20052;-91
2024/01/15 06:00:45;;;;;;;9.87;1.90;;;1.60;99.90;;;;;;4903744;29;20048;-91
2024/01/15 06:03:11;;;;;;;7.83;1.60;;;0.50;99.90;;;;;;4902891;29;20075;-91
2024/01/15 06:05:43;;;;;;;6.93;1.67;;;0.90;99.90;;;;;;4903570;29;20087;-91
2024/01/15 06:08:27;;;;;;;8.23;1.73;;;0.60;99.90;;;;;;4902739;29;20048;-91
2024/01/15 06:10:54;;;;;;;;;;;1.30;99.90;;;;;;4904048;29;20044;-91
2024/01/15 06:13:22;;;;;;;12.60;2.73;;;3.30;99.90;;;;;;4903200;29;20014;-91
2024/01/15 06:16:13;;;;;;;10.60;1.73;;;3.40;99.90;;;;;;4904118;29;20055;-90
2024/01/15 06:18:51;;;;;;;5.17;1.50;;;0.60;99.90;;;;;;4904306;29;20048;-91
2024/01/15 06:21:33;;;;;;;6.53;1.60;;;1.50;99.90;;;;;;4904088;29;20139;-92
2024/01/15 06:24:39;;;;;;;9.90;1.90;;;2.00;99.90;;;;;;4908720;29;20060;-91
2024/01/15 06:27:11;;;;;;;5.30;1.33;;;0.40;99.90;;;;;;4910644;29;20044;-91
2024/01/15 06:29:39;;;;;;;10.67;2.17;;;0.30;99.90;;;;;;4911212;29;20485;-90
2024/01/15 06:32:14;;;;;;;8.33;2.30;;;0.20;99.90;;;;;;4916383;29;20131;-91
2024/01/15 06:34:45;;;;;;;6.80;2.10;;;0.20;99.90;;;;;;4913506;29;20048;-91
2024/01/15 06:37:20;;;;;;;14.43;1.97;;;0.30;99.90;;;;;;4909640;29;20987;-91
2024/01/15 06:40:01;;;;;;;2.70;0.90;;;1.70;99.90;;;;;;4907276;29;20139;-92
2024/01/15 06:42:29;;;;;;;6.60;1.37;;;0.30;99.90;;;;;;4908947;29;20043;-91
2024/01/15 06:44:58;;;;;;;4.80;1.20;;;1.70;99.90;;;;;;4902866;29;20457;-89
2024/01/15 06:47:24;;;;;;;7.10;1.30;;;0.20;99.90;;;;;;4902044;29;20047;-91
2024/01/15 06:49:50;;;;;;;4.67;1.93;;;0.60;99.90;;;;;;4902725;29;20048;-91
2024/01/15 06:52:30;;;;;;;7.20;1.60;;;0.10;99.90;;;;;;4902259;29;20135;-91
2024/01/15 06:54:59;;;;;;;6.33;1.07;;;1.10;99.90;;;;;;4901331;29;20130;-91
2024/01/15 06:57:34;;;;;;;7.50;1.80;;;1.50;99.90;;;;;;4902656;29;20091;-93
2024/01/15 07:00:19;;;;;;;6.80;1.30;;;0.20;99.90;;;;;;4901840;29;20453;-88
2024/01/15 07:03:00;;;;;;;12.00;1.87;;;0.20;99.90;;;;;;4900766;29;20488;-90
2024/01/15 07:05:32;;;;;;;9.70;1.60;;;1.80;99.90;;;;;;4902447;29;20048;-90
2024/01/15 07:07:57;;;;;;;10.03;1.93;;;0.50;99.90;;;;;;4905275;29;20048;-92
2024/01/15 07:10:23;;;;;;;14.90;2.40;;;0.30;99.90;;;;;;4901337;29;20051;-90
2024/01/15 07:12:49;;;;;;;15.40;2.60;;;0.40;99.90;;;;;;4902209;29;20136;-91
2024/01/15 07:15:48;;;;;;;8.85;2.10;;;0.40;99.90;;;;;;4901442;29;20048;-91
2024/01/15 07:18:23;;;;;;;9.83;2.30;;;0.80;99.90;;;;;;4901624;29;20147;-95
2024/01/15 07:20:59;;;;;;;14.17;2.27;;;0.40;99.90;;;;;;4902606;29;20060;-91
2024/01/15 07:24:27;;;;;;;10.55;1.90;;;0.60;99.90;;;;;;4901788;29;20381;-91
2024/01/15 07:26:53;;;;;;;11.13;2.23;;;1.00;99.90;;;;;;4900865;29;20067;-89
2024/01/15 07:29:27;;;;;;;12.60;3.20;;;1.80;99.90;;;;;;4903498;29;20044;-91
2024/01/15 07:31:53;;;;;;;13.07;2.90;;;0.50;99.90;;;;;;4900753;29;20060;-89
2024/01/15 07:34:28;;;;;;;15.37;3.43;;;0.40;99.90;;;;;;4900916;29;20044;-90
2024/01/15 07:36:53;;;;;;;13.70;2.70;;;0.40;99.90;;;;;;4900141;29;20044;-89
2024/01/15 07:39:19;;;;;;;13.37;2.37;;;0.60;99.90;;;;;;4900713;29;20047;-89
2024/01/15 07:41:44;;;;;;;12.77;2.30;;;0.60;99.90;;;;;;4901074;29;20040;-90
2024/01/15 07:44:10;;;;;;;13.60;3.40;;;0.90;99.90;;;;;;4899093;29;20122;-88
2024/01/15 07:46:36;;;;;;;10.03;2.37;;;0.60;99.90;;;;;;4900774;29;20055;-89
2024/01/15 07:49:02;;;;;;;11.57;2.40;;;0.60;99.90;;;;;;4899425;29;20055;-90
2024/01/15 07:51:27;;;;;;;9.60;2.40;;;0.60;99.90;;;;;;4899863;29;20040;-90
2024/01/15 07:53:55;;;;;;;11.40;2.10;;;0.90;99.90;;;;;;4900570;29;20067;-91
2024/01/15 07:56:21;;;;;;;13.87;2.83;;;0.50;99.90;;;;;;4900511;29;20051;-90
2024/01/15 07:58:47;;;;;;;10.73;2.10;;;0.50;99.90;;;;;;4905914;29;20091;-94
2024/01/15 08:01:12;;;;;;;15.13;2.57;;;0.50;99.90;;;;;;4901038;29;20062;-92
2024/01/15 08:03:38;;;;;;;14.23;2.60;;;0.80;99.90;;;;;;4902044;29;20079;-91
2024/01/15 08:06:05;;;;;;;11.30;2.70;;;0.40;99.90;;;;;;4900004;29;20154;-91
2024/01/15 08:08:31;;;;;;;10.07;2.20;;;0.40;99.90;;;;;;4900732;29;20059;-89
2024/01/15 08:10:57;;;;;;;12.17;2.50;;;1.70;99.90;;;;;;4899577;29;20043;-89
2024/01/15 08:13:22;;;;;;;11.00;2.50;;;0.30;99.90;;;;;;4900518;29;20067;-89
2024/01/15 08:15:50;;;;;;;29.90;12.37;;;0.30;99.90;;;;;;4900320;29;20505;-89
2024/01/15 08:18:15;;;;;;;13.47;2.87;;;1.60;99.90;;;;;;4899489;29;20083;-89
2024/01/15 08:20:41;;;;;;;11.50;2.80;;;0.30;99.90;;;;;;4899606;29;20052;-86
2024/01/15 08:23:06;;;;;;;13.07;4.00;;;0.30;99.90;;;;;;4899561;29;20056;-86
2024/01/15 08:25:32;;;;;;;14.67;3.10;;;1.60;99.90;;;;;;4899759;29;20052;-90
2024/01/15 08:27:58;;;;;;;11.30;4.20;;;0.40;99.90;;;;;;4900431;29;20051;-87
2024/01/15 08:30:27;;;;;;;16.03;4.83;;;0.40;99.90;;;;;;4898754;29;20075;-88
2024/01/15 08:32:54;;;;;;;18.70;6.37;;;0.40;99.90;;;;;;4899360;29;20495;-88
2024/01/15 08:35:22;;;;;;;16.83;8.03;;;0.40;99.90;;;;;;4900401;29;20040;-88
2024/01/15 08:37:54;;;;;;;16.77;5.10;;;0.50;99.90;;;;;;4910690;29;20044;-88
2024/01/15 08:40:20;;;;;;;19.23;5.90;;;0.40;99.90;;;;;;4907324;29;20051;-90
2024/01/15 08:42:46;;;;;;;12.03;2.93;;;0.40;99.90;;;;;;4900679;29;20492;-89
2024/01/15 08:45:12;;;;;;;12.77;3.53;;;0.40;99.90;;;;;;4899769;29;20056;-90
2024/01/15 08:47:38;;;;;;;11.30;2.60;;;0.40;99.90;;;;;;4899035;29;20071;-91
2024/01/15 08:50:04;;;;;;;15.00;2.80;;;0.50;99.90;;;;;;4899301;29;20489;-90
2024/01/15 08:52:30;;;;;;;13.47;2.67;;;0.50;99.90;;;;;;4899613;29;20051;-90
2024/01/15 08:54:56;;;;;;;13.27;3.33;;;0.50;99.90;;;;;;4898274;29;20055;-89
2024/01/15 08:57:23;;;;;;;13.37;2.67;;;0.50;99.90;;;;;;4900056;29;20044;-90
2024/01/15 08:59:49;;;;;;;11.77;2.50;;;1.80;99.90;;;;;;4900087;29;20052;-90
2024/01/15 09:02:14;;;;;;;18.90;5.37;;;1.60;99.90;;;;;;4898892;29;20575;-90
2024/01/15 09:04:41;;;;;;;15.57;3.30;;;0.70;99.90;;;;;;4899860;29;20083;-89
2024/01/15 09:07:07;;;;;;;14.63;3.10;;;1.10;99.90;;;;;;4899048;29;20043;-89
2024/01/15 09:09:34;;;;;;;16.63;2.80;;;0.70;99.90;;;;;;4899264;29;20048;-89
2024/01/15 09:12:00;;;;;;;14.33;3.40;;;0.80;99.90;;;;;;4902534;29;20485;-90
2024/01/15 09:14:26;;;;;;;13.70;3.70;;;0.80;99.90;;;;;;4902873;29;20103;-90
2024/01/15 09:16:53;;;;;;;14.97;4.07;;;2.10;99.90;;;;;;4904142;29;20074;-89
2024/01/15 09:19:19;;;;;;;12.00;2.83;;;1.60;99.90;;;;;;4903552;29;20043;-89
2024/01/15 09:21:45;;;;;;;17.97;4.33;;;2.00;99.90;;;;;;4903054;29;20527;-90
2024/01/15 09:24:11;;;;;;;17.80;3.50;;;0.80;99.90;;;;;;4904847;29;20064;-90
2024/01/15 09:26:36;;;;;;;14.40;4.60;;;0.90;99.90;;;;;;4904786;29;20051;-91
2024/01/15 09:29:02;;;;;;;12.23;3.07;;;2.20;99.90;;;;;;4902606;29;20092;-90
2024/01/15 09:31:28;;;;;;;13.57;2.80;;;1.00;99.90;;;;;;4904128;29;20119;-91
2024/01/15 09:34:00;;;;;;;14.57;2.40;;;1.60;99.90;;;;;;4903723;29;20044;-87
2024/01/15 09:36:25;;;;;;;13.53;2.60;;;1.20;99.90;;;;;;4903467;29;20048;-91
2024/01/15 09:38:51;;;;;;;12.57;3.13;;;1.30;99.90;;;;;;4903309;29;20567;-90
2024/01/15 09:41:17;;;;;;;12.37;3.00;;;1.30;99.90;;;;;;4903150;29;20787;-91
2024/01/15 09:43:43;;;;;;;13.77;4.20;;;2.90;99.90;;;;;;4903278;29;20510;-91
2024/01/15 09:46:09;;;;;;;13.97;3.30;;;1.50;99.90;;;;;;4903205;29;20055;-91
2024/01/15 09:48:35;;;;;;;15.70;3.60;;;1.40;99.90;;;;;;4903469;29;20044;-91
2024/01/15 09:51:07;;;;;;;17.90;3.13;;;1.50;99.90;;;;;;4902429;29;20044;-91
2024/01/15 09:53:33;;;;;;;14.70;2.97;;;2.50;99.90;;;;;;4905728;29;20484;-91
2024/01/15 09:56:00;;;;;;;15.53;4.57;;;1.50;99.90;;;;;;4905498;29;20055;-91
2024/01/15 09:58:26;;;;;;;10.87;3.40;;;1.50;99.90;;;;;;4902807;29;20044;-91
2024/01/15 10:00:52;;;;;;;10.80;3.40;;;1.60;99.90;;;;;;4902907;29;20575;-91
2024/01/15 10:03:18;;;;;;;15.63;4.23;;;1.60;99.90;;;;;;4902400;29;20056;-91
2024/01/15 10:05:44;;;;;;;11.40;3.40;;;1.70;99.90;;;;;;4903504;29;20044;-91
2024/01/15 10:08:10;;;;;;;15.23;4.93;;;2.80;99.90;;;;;;4902477;29;20408;-91
2024/01/15 10:10:37;;;;;;;13.73;3.90;;;1.80;99.90;;;;;;4902301;29;20578;-91
2024/01/15 10:13:04;;;;;;;15.20;4.43;;;1.80;99.90;;;;;;4902982;29;20059;-91
2024/01/15 10:15:29;;;;;;;12.37;2.80;;;2.50;99.90;;;;;;4903171;29;20131;-91
2024/01/15 10:17:55;;;;;;;12.37;2.73;;;1.80;99.90;;;;;;4901973;29;20192;-91
2024/01/15 10:20:24;;;;;;;12.63;3.90;;;1.90;99.90;;;;;;4903413;29;20055;-91
2024/01/15 10:22:50;;;;;;;11.37;4.77;;;1.90;99.90;;;;;;4904391;29;20079;-90
2024/01/15 10:25:22;;;;;;;12.67;2.50;;;2.40;99.90;;;;;;4906501;29;20503;-90
2024/01/15 10:30:17;;;;;;;10.77;1.83;;;2.20;99.90;;;;;;4941114;29;20048;-93
2024/01/15 10:32:59;;;;;;;13.33;2.83;;;2.10;99.90;;;;;;4921045;29;20143;-91
2024/01/15 10:35:35;;;;;;;9.93;2.00;;;2.10;99.90;;;;;;4920222;29;20522;-90
2024/01/15 10:38:01;;;;;;;8.83;3.10;;;2.00;99.90;;;;;;4916254;29;20143;-91
2024/01/15 10:40:28;;;;;;;10.47;2.00;;;2.00;99.90;;;;;;4916447;29;20075;-90
2024/01/15 10:42:54;;;;;;;12.00;2.30;;;2.10;99.90;;;;;;4919898;29;20466;-89
2024/01/15 10:45:19;;;;;;;8.97;2.83;;;2.20;99.90;;;;;;4919506;29;20144;-89
2024/01/15 10:47:45;;;;;;;8.83;2.00;;;2.30;99.90;;;;;;4919020;29;20079;-90
2024/01/15 10:50:11;;;;;;;10.90;1.77;;;2.40;99.90;;;;;;4920094;29;20571;-89
2024/01/15 10:52:40;;;;;;;8.57;2.03;;;2.30;99.90;;;;;;4919657;29;20134;-89
2024/01/15 10:55:08;;;;;;;7.70;1.90;;;2.20;99.90;;;;;;4920122;29;20228;-89
2024/01/15 10:57:37;;;;;;;8.83;1.93;;;2.20;99.90;;;;;;4919843;29;20044;-90
2024/01/15 11:00:05;;;;;;;12.80;2.33;;;2.30;99.90;;;;;;4919407;29;20448;-89
2024/01/15 11:02:35;;;;;;;7.20;1.90;;;2.40;99.90;;;;;;4920024;29;20465;-89
2024/01/15 11:05:01;;;;;;;8.87;1.80;;;2.40;99.90;;;;;;4935820;29;20392;-89
2024/01/15 11:07:27;;;;;;;9.03;1.50;;;2.30;99.90;;;;;;4936317;29;20086;-88
2024/01/15 11:09:53;;;;;;;7.03;1.70;;;2.30;99.90;;;;;;4919300;29;20103;-88
2024/01/15 11:12:19;;;;;;;6.50;1.70;;;2.30;99.90;;;;;;4919967;29;20040;-89
2024/01/15 11:14:52;;;;;;;11.33;1.70;;;2.20;99.90;;;;;;4918683;29;20048;-90
2024/01/15 11:17:18;;;;;;;5.70;1.43;;;2.40;99.90;;;;;;4921094;29;20044;-89
2024/01/15 11:19:50;;;;;;;9.07;2.23;;;2.20;99.90;;;;;;4922321;29;20056;-91
2024/01/15 11:22:31;;;;;;;13.83;2.00;;;2.40;99.90;;;;;;4922627;29;20086;-90
2024/01/15 11:25:00;;;;;;;8.47;1.80;;;2.40;99.90;;;;;;4921913;29;20083;-89
2024/01/15 11:27:56;;;;;;;5.70;1.50;;;2.40;99.90;;;;;;4920702;29;20039;-89
2024/01/15 11:30:25;;;;;;;7.67;1.80;;;2.50;99.90;;;;;;4924157;29;20052;-91
2024/01/15 11:32:50;;;;;;;17.60;8.13;;;2.50;99.90;;;;;;4929795;29;20047;-92
2024/01/15 11:35:16;;;;;;;7.40;2.10;;;3.80;99.90;;;;;;4930522;29;20059;-91
2024/01/15 11:37:51;;;;;;;11.23;3.57;;;2.50;99.90;;;;;;4925011;29;20044;-91
2024/01/15 11:40:21;;;;;;;11.27;2.10;;;2.90;99.90;;;;;;4925504;29;20047;-91
2024/01/15 11:42:48;;;;;;;6.50;1.63;;;2.20;99.90;;;;;;4919332;29;20059;-91
2024/01/15 11:45:19;;;;;;;8.10;1.80;;;2.10;99.90;;;;;;4935240;29;20044;-89
2024/01/15 11:48:07;;;;;;;6.33;1.90;;;2.10;99.90;;;;;;4935526;29;20043;-90
2024/01/15 11:50:34;;;;;;;12.93;7.13;;;2.10;99.90;;;;;;4921139;29;20047;-92
2024/01/15 11:53:01;;;;;;;8.87;3.97;;;2.10;99.90;;;;;;4925256;29;20043;-90
2024/01/15 11:55:33;;;;;;;10.70;3.70;;;2.10;99.90;;;;;;4920474;29;20044;-90
2024/01/15 11:58:01;;;;;;;11.53;5.03;;;2.10;99.90;;;;;;4918801;29;20044;-92
2024/01/15 12:00:28;;;;;;;12.37;4.30;;;2.10;99.90;;;;;;4919654;29;20563;-91
2024/01/15 12:02:54;;;;;;;9.63;2.93;;;2.10;99.90;;;;;;4921569;29;20040;-91
2024/01/15 12:05:20;;;;;;;10.20;2.67;;;2.20;99.90;;;;;;4922949;29;20055;-92
2024/01/15 12:07:48;;;;;;;8.20;2.07;;;2.30;99.90;;;;;;4920166;29;20043;-93
2024/01/15 12:10:16;;;;;;;10.07;4.27;;;2.30;99.90;;;;;;4918615;29;20141;-89
2024/01/15 12:13:02;;;;;;;7.60;1.60;;;2.30;99.90;;;;;;4919816;29;20103;-89
2024/01/15 12:15:29;;;;;;;6.00;1.60;;;2.40;99.90;;;;;;4913576;29;20488;-91
2024/01/15 12:17:59;;;;;;;6.33;1.23;;;2.20;99.90;;;;;;4919073;29;20051;-92
2024/01/15 12:20:32;;;;;;;4.60;1.60;;;2.10;99.90;;;;;;4919668;29;20044;-90
2024/01/15 12:22:58;;;;;;;7.03;2.03;;;2.70;99.90;;;;;;4921745;29;20495;-91
2024/01/15 12:25:25;;;;;;;4.57;1.63;;;1.80;99.90;;;;;;4919004;29;20055;-93
2024/01/15 12:27:51;;;;;;;5.70;1.50;;;1.60;99.90;;;;;;4919432;29;20103;-91
2024/01/15 12:30:18;;;;;;;5.77;1.50;;;1.50;99.90;;;;;;4919052;29;20050;-90
2024/01/15 12:32:45;;;;;;;8.23;2.57;;;1.30;99.90;;;;;;4918492;29;20043;-92
2024/01/15 12:35:11;;;;;;;8.13;2.33;;;1.00;99.90;;;;;;4918761;29;20102;-91
2024/01/15 12:37:38;;;;;;;11.50;4.17;;;0.90;99.90;;;;;;4918991;29;20075;-93
2024/01/15 12:40:06;;;;;;;5.27;1.53;;;0.80;99.90;;;;;;4920577;29;20044;-94
2024/01/15 12:42:33;;;;;;;5.47;1.40;;;0.70;99.90;;;;;;4924250;29;20054;-96
2024/01/15 12:45:00;;;;;;;8.00;1.70;;;0.60;99.90;;;;;;4933513;29;20072;-96
2024/01/15 12:47:26;;;;;;;5.40;1.67;;;0.50;99.90;;;;;;4948492;29;20050;-96
2024/01/15 12:49:55;;;;;;;5.97;1.40;;;0.50;99.90;;;;;;4948357;29;20051;-96
2024/01/15 12:52:21;;;;;;;6.80;2.37;;;0.50;99.90;;;;;;4953524;29;20039;-96
2024/01/15 12:57:23;;;;;;;5.97;1.60;;;0.50;99.90;;;;;;4962232;23;20055;-96
2024/01/15 12:59:54;;;;;;;7.97;2.73;;;2.60;99.90;;;;;;4929664;29;20117;-96
2024/01/15 13:02:35;;;;;;;8.43;2.27;;;1.20;99.90;;;;;;4941998;29;20054;-95
2024/01/15 13:05:04;;;;;;;49.83;19.30;;;0.70;99.90;;;;;;4935496;29;20046;-93
2024/01/15 13:08:03;;;;;;;58.10;17.33;;;2.00;99.90;;;;;;4919552;29;20075;-93
2024/01/15 13:10:30;;;;;;;145.23;42.23;;;0.50;99.90;;;;;;4920110;29;20083;-94
2024/01/15 13:13:10;;;;;;;11.23;3.53;;;0.60;99.90;;;;;;4920207;29;20066;-95
2024/01/15 13:15:37;;;;;;;8.37;3.00;;;0.60;99.90;;;;;;4920080;29;20054;-96
2024/01/15 13:18:14;;;;;;;13.40;6.00;;;0.70;99.90;;;;;;4920228;29;20492;-95
2024/01/15 13:23:27;;;;;;;7.93;1.90;;;1.10;99.90;;;;;;4928206;29;20051;-95
2024/01/15 13:26:09;;;;;;;9.03;2.17;;;0.40;99.90;;;;;;4922768;29;20396;-95